createdAt,value
2019-02-21T00:01:38.735Z,6.28
2019-02-21T00:04:06.605Z,6.00
2019-02-21T00:06:34.451Z,6.28
2019-02-21T00:09:03.739Z,6.05
2019-02-21T00:11:31.673Z,7.35
2019-02-21T00:14:00.635Z,6.45
2019-02-21T00:16:29.094Z,7.87
2019-02-21T00:18:58.182Z,7.80
2019-02-21T00:21:26.111Z,7.22
2019-02-21T00:23:55.181Z,7.37
2019-02-21T00:26:23.023Z,10.63
2019-02-21T00:28:51.633Z,8.35
2019-02-21T00:31:19.979Z,7.28
2019-02-21T00:33:49.000Z,8.10
2019-02-21T00:38:24.812Z,7.80
2019-02-21T00:40:52.395Z,6.35
2019-02-21T00:43:19.774Z,7.05
2019-02-21T00:45:47.767Z,6.80
2019-02-21T00:48:15.620Z,6.13
2019-02-21T00:50:43.503Z,6.05
2019-02-21T00:53:10.734Z,8.87
2019-02-21T00:55:38.798Z,8.07
2019-02-21T00:58:06.506Z,6.85
2019-02-21T01:00:34.337Z,7.20
2019-02-21T01:03:01.770Z,7.77
2019-02-21T01:05:29.184Z,8.43
2019-02-21T01:07:57.127Z,9.20
2019-02-21T01:10:24.731Z,7.87
2019-02-21T01:12:52.048Z,8.30
2019-02-21T01:15:19.740Z,9.73
2019-02-21T01:17:47.660Z,7.45
2019-02-21T01:20:15.661Z,9.23
2019-02-21T01:22:43.740Z,7.10
2019-02-21T01:25:11.077Z,5.70
2019-02-21T01:27:38.549Z,6.57
2019-02-21T01:32:44.088Z,6.35
2019-02-21T01:35:11.642Z,5.97
2019-02-21T01:37:38.883Z,7.90
2019-02-21T01:40:07.702Z,7.00
2019-02-21T01:42:34.941Z,6.50
2019-02-21T01:45:02.197Z,8.00
2019-02-21T01:47:29.535Z,7.85
2019-02-21T01:49:56.793Z,9.20
2019-02-21T01:52:24.022Z,11.03
2019-02-21T01:54:51.570Z,8.30
2019-02-21T01:57:18.852Z,8.10
2019-02-21T01:59:46.427Z,8.40
2019-02-21T02:02:13.727Z,7.70
2019-02-21T02:04:41.001Z,6.60
2019-02-21T02:07:08.778Z,6.95
2019-02-21T02:09:37.078Z,6.40
2019-02-21T02:12:04.750Z,6.53
2019-02-21T02:14:32.797Z,6.75
2019-02-21T02:17:00.710Z,6.90
2019-02-21T02:19:28.633Z,6.65
2019-02-21T02:21:56.038Z,6.15
2019-02-21T02:24:24.626Z,7.03
2019-02-21T02:26:53.059Z,8.30
2019-02-21T02:29:21.027Z,8.20
2019-02-21T02:31:52.406Z,7.70
2019-02-21T02:34:21.160Z,7.65
2019-02-21T02:36:48.986Z,8.97
2019-02-21T02:39:17.677Z,7.80
2019-02-21T02:41:45.169Z,8.83
2019-02-21T02:44:13.425Z,10.05
2019-02-21T02:46:40.592Z,8.33
2019-02-21T02:49:09.391Z,7.55
2019-02-21T02:51:37.142Z,7.25
2019-02-21T02:54:04.482Z,7.25
2019-02-21T02:56:32.559Z,7.10
2019-02-21T02:59:00.712Z,6.65
2019-02-21T03:01:34.667Z,6.50
2019-02-21T03:03:58.821Z,8.35
2019-02-21T03:06:26.909Z,7.25
2019-02-21T03:08:55.298Z,8.15
2019-02-21T03:11:24.378Z,8.85
2019-02-21T03:13:52.964Z,10.60
2019-02-21T03:16:21.825Z,9.63
2019-02-21T03:18:49.841Z,11.67
2019-02-21T03:21:17.995Z,11.57
2019-02-21T03:23:46.104Z,15.20
2019-02-21T03:26:14.032Z,9.40
2019-02-21T03:28:42.911Z,8.87
2019-02-21T03:31:10.981Z,8.80
2019-02-21T03:33:39.374Z,7.40
2019-02-21T03:36:08.714Z,7.40
2019-02-21T03:38:39.150Z,7.25
2019-02-21T03:41:07.293Z,7.05
2019-02-21T03:43:35.299Z,8.10
2019-02-21T03:46:03.821Z,8.30
2019-02-21T03:48:32.574Z,9.00
2019-02-21T03:51:01.298Z,8.80
2019-02-21T03:53:29.285Z,10.50
2019-02-21T03:55:57.432Z,11.80
2019-02-21T03:58:25.510Z,9.75
2019-02-21T04:00:54.022Z,12.50
2019-02-21T04:03:23.258Z,14.95
2019-02-21T04:05:51.560Z,13.27
2019-02-21T04:08:19.720Z,9.33
2019-02-21T04:10:47.938Z,8.65
2019-02-21T04:13:15.961Z,8.55
2019-02-21T04:15:43.703Z,8.60
2019-02-21T04:18:15.902Z,8.63
2019-02-21T04:20:43.886Z,9.00
2019-02-21T04:23:12.934Z,8.20
2019-02-21T04:25:40.800Z,7.60
2019-02-21T04:28:08.653Z,8.40
2019-02-21T04:30:37.612Z,8.95
2019-02-21T04:33:06.655Z,10.10
2019-02-21T04:35:35.443Z,10.50
2019-02-21T04:38:04.593Z,10.00
2019-02-21T04:40:33.825Z,10.00
2019-02-21T04:43:02.766Z,12.33
2019-02-21T04:45:31.892Z,16.75
2019-02-21T04:48:00.791Z,12.55
2019-02-21T04:50:29.405Z,8.80
2019-02-21T04:52:57.384Z,8.70
2019-02-21T04:55:26.211Z,9.23
2019-02-21T04:57:55.247Z,8.55
2019-02-21T05:00:23.222Z,8.10
2019-02-21T05:02:54.038Z,8.78
2019-02-21T05:05:22.211Z,7.50
2019-02-21T05:07:50.608Z,8.67
2019-02-21T05:10:18.955Z,11.80
2019-02-21T05:12:47.353Z,11.95
2019-02-21T05:15:15.209Z,11.00
2019-02-21T05:17:43.355Z,9.75
2019-02-21T05:20:11.181Z,11.83
2019-02-21T05:22:39.380Z,12.10
2019-02-21T05:25:07.317Z,16.70
2019-02-21T05:27:38.439Z,12.20
2019-02-21T05:30:09.438Z,9.10
2019-02-21T05:32:57.554Z,9.00
2019-02-21T05:35:56.935Z,7.80
2019-02-21T05:38:47.002Z,12.00
2019-02-21T05:41:41.045Z,12.60
2019-02-21T05:44:24.412Z,8.85
2019-02-21T05:47:00.971Z,8.15
2019-02-21T05:49:48.059Z,7.28
2019-02-21T05:52:31.262Z,12.00
2019-02-21T05:55:04.658Z,13.60
2019-02-21T05:57:55.133Z,11.25
2019-02-21T06:00:45.547Z,8.70
2019-02-21T06:03:25.993Z,7.70
2019-02-21T06:06:09.481Z,9.33
2019-02-21T06:08:44.306Z,12.13
2019-02-21T06:11:38.178Z,11.10
2019-02-21T06:14:30.714Z,11.85
2019-02-21T06:17:07.979Z,8.50
2019-02-21T06:19:48.100Z,9.67
2019-02-21T06:22:35.666Z,7.30
2019-02-21T06:25:31.365Z,8.30
2019-02-21T06:28:12.168Z,10.15
2019-02-21T06:30:44.221Z,11.83
2019-02-21T06:33:15.445Z,12.50
2019-02-21T06:35:43.771Z,10.70
2019-02-21T06:38:12.324Z,7.55
2019-02-21T06:40:40.497Z,15.40
2019-02-21T06:43:08.614Z,10.55
2019-02-21T06:45:36.519Z,11.10
2019-02-21T06:48:05.010Z,9.65
2019-02-21T06:50:33.630Z,10.50
2019-02-21T06:53:02.347Z,9.53
2019-02-21T06:55:30.247Z,8.05
2019-02-21T06:57:58.883Z,9.40
2019-02-21T07:00:26.812Z,8.37
2019-02-21T07:02:54.719Z,8.67
2019-02-21T07:05:23.277Z,11.20
2019-02-21T07:07:52.240Z,10.60
2019-02-21T07:10:21.316Z,8.80
2019-02-21T07:12:49.491Z,9.15
2019-02-21T07:15:18.389Z,8.60
2019-02-21T07:17:49.620Z,7.77
2019-02-21T07:20:17.723Z,9.30
2019-02-21T07:22:45.550Z,8.20
2019-02-21T07:25:24.660Z,7.72
2019-02-21T07:27:53.738Z,8.25
2019-02-21T07:30:23.349Z,9.50
2019-02-21T07:32:51.731Z,9.20
2019-02-21T07:35:20.080Z,9.63
2019-02-21T07:37:49.043Z,13.60
2019-02-21T07:40:20.381Z,14.60
2019-02-21T07:42:48.541Z,13.35
2019-02-21T07:45:16.563Z,13.65
2019-02-21T07:47:45.727Z,10.93
2019-02-21T07:50:15.507Z,9.55
2019-02-21T07:52:44.244Z,12.97
2019-02-21T07:55:12.597Z,12.40
2019-02-21T07:57:41.272Z,12.80
2019-02-21T08:00:10.544Z,18.20
2019-02-21T08:02:39.119Z,15.57
2019-02-21T08:05:07.464Z,17.70
2019-02-21T08:07:35.604Z,15.55
2019-02-21T08:10:03.973Z,18.30
2019-02-21T08:12:32.491Z,16.30
2019-02-21T08:15:52.890Z,18.05
2019-02-21T08:18:28.523Z,12.83
2019-02-21T08:20:58.657Z,18.70
2019-02-21T08:23:27.718Z,17.80
2019-02-21T08:25:56.763Z,15.50
2019-02-21T08:28:25.773Z,16.40
2019-02-21T08:33:01.320Z,15.95
2019-02-21T08:35:29.154Z,18.60
2019-02-21T08:37:57.503Z,16.57
2019-02-21T08:40:26.582Z,16.20
2019-02-21T08:42:54.220Z,15.40
2019-02-21T08:45:22.134Z,21.00
2019-02-21T08:47:49.424Z,22.37
2019-02-21T08:50:16.689Z,18.00
2019-02-21T08:52:44.484Z,19.75
2019-02-21T08:55:12.466Z,20.77
2019-02-21T08:58:14.602Z,13.65
2019-02-21T09:00:42.893Z,17.50
2019-02-21T09:03:11.679Z,30.05
2019-02-21T09:05:39.834Z,14.55
2019-02-21T09:08:08.180Z,15.20
2019-02-21T09:10:36.393Z,14.70
2019-02-21T09:13:04.533Z,18.35
2019-02-21T09:15:32.504Z,17.95
2019-02-21T09:18:01.597Z,19.25
2019-02-21T09:20:30.477Z,24.05
2019-02-21T09:23:00.038Z,18.60
2019-02-21T09:25:28.965Z,12.50
2019-02-21T09:27:59.763Z,18.90
2019-02-21T09:30:28.202Z,16.80
2019-02-21T09:32:57.081Z,14.95
2019-02-21T09:35:24.883Z,14.00
2019-02-21T09:37:52.770Z,20.15
2019-02-21T09:40:21.622Z,13.45
2019-02-21T09:42:50.273Z,14.00
2019-02-21T09:47:37.574Z,15.60
2019-02-21T09:50:05.804Z,19.80
2019-02-21T09:52:33.413Z,15.75
2019-02-21T09:55:01.584Z,15.20
2019-02-21T09:57:29.754Z,16.90
2019-02-21T09:59:57.947Z,13.60
2019-02-21T10:02:26.110Z,15.10
2019-02-21T10:05:04.245Z,16.25
2019-02-21T10:07:23.299Z,17.90
2019-02-21T10:09:50.588Z,15.00
2019-02-21T10:14:58.582Z,18.85
2019-02-21T10:17:26.438Z,12.80
2019-02-21T10:19:54.541Z,13.50
2019-02-21T10:22:26.265Z,18.70
2019-02-21T10:24:56.850Z,14.20
2019-02-21T10:27:23.625Z,16.70
2019-02-21T10:29:51.886Z,15.30
2019-02-21T10:32:20.059Z,11.10
2019-02-21T10:34:47.967Z,13.00
2019-02-21T10:37:15.761Z,17.60
2019-02-21T10:39:43.655Z,17.23
2019-02-21T10:42:12.214Z,11.70
2019-02-21T10:44:40.616Z,11.80
2019-02-21T10:47:09.084Z,12.77
2019-02-21T10:49:36.821Z,13.83
2019-02-21T10:52:04.511Z,12.05
2019-02-21T10:54:32.575Z,14.75
2019-02-21T10:56:59.818Z,11.83
2019-02-21T10:59:27.305Z,9.60
2019-02-21T11:01:54.527Z,13.10
2019-02-21T11:04:21.805Z,11.75
2019-02-21T11:06:49.343Z,10.80
2019-02-21T11:09:21.122Z,13.10
2019-02-21T11:11:48.314Z,12.30
2019-02-21T11:14:16.125Z,13.40
2019-02-21T11:16:43.330Z,12.00
2019-02-21T11:19:12.239Z,9.25
2019-02-21T11:21:39.419Z,10.93
2019-02-21T11:24:06.642Z,11.35
2019-02-21T11:26:33.954Z,12.90
2019-02-21T11:29:02.100Z,13.00
2019-02-21T11:31:30.373Z,15.80
2019-02-21T11:33:58.932Z,13.05
2019-02-21T11:36:26.722Z,12.25
2019-02-21T11:38:54.281Z,9.20
2019-02-21T11:41:22.912Z,11.30
2019-02-21T11:43:50.410Z,16.90
2019-02-21T11:46:18.085Z,9.60
2019-02-21T11:48:45.988Z,14.00
2019-02-21T11:51:13.285Z,16.00
2019-02-21T11:53:41.184Z,11.25
2019-02-21T11:56:08.459Z,15.93
2019-02-21T11:58:35.918Z,18.60
2019-02-21T12:01:03.128Z,23.27
2019-02-21T12:03:30.487Z,16.53
2019-02-21T12:05:58.851Z,20.90
2019-02-21T12:08:26.856Z,20.23
2019-02-21T12:10:54.066Z,19.17
2019-02-21T12:13:21.687Z,21.33
2019-02-21T12:15:49.824Z,18.90
2019-02-21T12:19:32.698Z,15.80
2019-02-21T12:22:00.383Z,21.75
2019-02-21T12:24:27.683Z,23.40
2019-02-21T12:26:56.211Z,14.85
2019-02-21T12:29:24.105Z,16.50
2019-02-21T12:31:52.166Z,15.67
2019-02-21T12:34:19.657Z,17.55
2019-02-21T12:36:47.157Z,19.57
2019-02-21T12:39:14.981Z,14.70
2019-02-21T12:41:42.204Z,16.93
2019-02-21T12:44:09.783Z,16.10
2019-02-21T12:46:37.530Z,18.40
2019-02-21T12:49:05.165Z,17.80
2019-02-21T12:51:52.291Z,17.35
2019-02-21T12:54:20.355Z,15.43
2019-02-21T12:56:48.601Z,19.90
2019-02-21T12:59:15.823Z,17.05
2019-02-21T13:02:02.631Z,23.95
2019-02-21T13:04:33.267Z,30.50
2019-02-21T13:07:00.405Z,31.45
2019-02-21T13:09:28.510Z,30.53
2019-02-21T13:11:56.419Z,26.23
2019-02-21T13:14:24.681Z,18.20
2019-02-21T13:16:52.435Z,20.97
2019-02-21T13:19:20.031Z,28.05
2019-02-21T13:21:47.874Z,23.60
2019-02-21T13:24:15.315Z,20.55
2019-02-21T13:26:42.554Z,20.47
2019-02-21T13:29:09.778Z,20.57
2019-02-21T13:31:37.057Z,20.65
2019-02-21T13:34:04.265Z,18.67
2019-02-21T13:36:33.948Z,21.53
2019-02-21T13:39:00.715Z,20.55
2019-02-21T13:41:27.970Z,15.50
2019-02-21T13:43:55.558Z,14.40
2019-02-21T13:46:23.221Z,12.30
2019-02-21T13:48:50.549Z,12.30
2019-02-21T13:51:18.107Z,14.93
2019-02-21T13:53:45.912Z,13.30
2019-02-21T13:56:13.125Z,15.33
2019-02-21T13:58:40.433Z,20.10
2019-02-21T14:01:07.992Z,21.45
2019-02-21T14:03:37.191Z,13.60
2019-02-21T14:06:04.400Z,15.60
2019-02-21T14:08:31.658Z,19.47
2019-02-21T14:10:59.175Z,13.50
2019-02-21T14:13:26.378Z,13.70
2019-02-21T14:15:53.657Z,16.90
2019-02-21T14:18:24.439Z,16.80
2019-02-21T14:20:52.498Z,12.50
2019-02-21T14:23:22.464Z,11.40
2019-02-21T14:28:20.766Z,14.80
2019-02-21T14:30:48.240Z,10.95
2019-02-21T14:33:17.474Z,14.35
2019-02-21T14:35:45.421Z,13.80
2019-02-21T14:38:12.624Z,10.60
2019-02-21T14:40:39.966Z,9.20
2019-02-21T14:43:07.148Z,10.20
2019-02-21T14:45:34.401Z,10.65
2019-02-21T14:48:02.262Z,9.40
2019-02-21T14:50:30.520Z,9.50
2019-02-21T14:52:58.698Z,10.97
2019-02-21T14:55:26.243Z,10.80
2019-02-21T14:57:53.565Z,12.50
2019-02-21T15:00:21.469Z,10.35
2019-02-21T15:02:48.679Z,7.60
2019-02-21T15:05:16.413Z,15.40
2019-02-21T15:07:44.606Z,8.87
2019-02-21T15:10:12.152Z,10.37
2019-02-21T15:12:40.751Z,11.53
2019-02-21T15:15:10.545Z,8.35
2019-02-21T15:17:39.798Z,8.55
2019-02-21T15:20:10.310Z,8.87
2019-02-21T15:22:38.952Z,10.00
2019-02-21T15:25:07.996Z,8.08
2019-02-21T15:27:36.259Z,7.75
2019-02-21T15:30:05.734Z,12.70
2019-02-21T15:32:34.496Z,7.05
2019-02-21T15:35:03.495Z,12.80
2019-02-21T15:37:32.463Z,11.20
2019-02-21T15:40:00.484Z,8.50
2019-02-21T15:42:28.731Z,12.58
2019-02-21T15:44:56.635Z,10.90
2019-02-21T15:47:25.093Z,10.40
2019-02-21T15:49:52.984Z,8.97
2019-02-21T15:52:25.391Z,11.05
2019-02-21T15:54:53.248Z,7.20
2019-02-21T15:57:22.787Z,8.35
2019-02-21T15:59:51.015Z,12.20
2019-02-21T16:02:19.631Z,12.00
2019-02-21T16:04:48.270Z,9.00
2019-02-21T16:07:16.957Z,10.55
2019-02-21T16:09:45.449Z,8.90
2019-02-21T16:12:13.313Z,10.70
2019-02-21T16:14:41.477Z,8.40
2019-02-21T16:17:09.485Z,9.27
2019-02-21T16:19:37.409Z,9.50
2019-02-21T16:22:05.548Z,9.45
2019-02-21T16:24:34.529Z,9.10
2019-02-21T16:27:02.506Z,14.70
2019-02-21T16:29:31.401Z,18.40
2019-02-21T16:32:00.561Z,17.00
2019-02-21T16:34:29.923Z,13.50
2019-02-21T16:37:02.459Z,14.10
2019-02-21T16:39:28.995Z,12.80
2019-02-21T16:41:57.634Z,18.97
2019-02-21T16:44:26.200Z,15.00
2019-02-21T16:46:57.698Z,17.23
2019-02-21T16:49:26.348Z,17.45
2019-02-21T16:51:54.604Z,23.00
2019-02-21T16:54:23.502Z,21.77
2019-02-21T16:56:56.593Z,27.10
2019-02-21T16:59:24.744Z,19.20
2019-02-21T17:01:52.915Z,19.17
2019-02-21T17:04:21.483Z,15.00
2019-02-21T17:06:49.535Z,16.25
2019-02-21T17:09:18.464Z,21.45
2019-02-21T17:11:46.865Z,15.85
2019-02-21T17:14:14.861Z,17.15
2019-02-21T17:16:43.541Z,13.05
2019-02-21T17:19:16.508Z,18.35
2019-02-21T17:21:45.052Z,13.30
2019-02-21T17:24:13.319Z,18.42
2019-02-21T17:26:41.775Z,19.80
2019-02-21T17:29:10.822Z,20.90
2019-02-21T17:31:39.833Z,24.85
2019-02-21T17:34:08.515Z,23.00
2019-02-21T17:36:37.287Z,15.80
2019-02-21T17:39:08.341Z,19.40
2019-02-21T17:41:36.710Z,14.40
2019-02-21T17:44:05.482Z,18.27
2019-02-21T17:46:33.688Z,16.37
2019-02-21T17:49:01.979Z,18.90
2019-02-21T17:51:30.387Z,16.10
2019-02-21T17:53:59.530Z,18.90
2019-02-21T17:56:27.723Z,19.10
2019-02-21T17:58:57.448Z,24.15
2019-02-21T18:01:26.174Z,30.95
2019-02-21T18:03:53.844Z,23.42
2019-02-21T18:06:23.644Z,25.50
2019-02-21T18:08:54.898Z,25.00
2019-02-21T18:11:23.082Z,25.40
2019-02-21T18:13:51.632Z,25.20
2019-02-21T18:16:20.482Z,24.70
2019-02-21T18:18:48.604Z,22.35
2019-02-21T18:21:17.193Z,26.70
2019-02-21T18:23:45.868Z,22.35
2019-02-21T18:26:17.802Z,26.45
2019-02-21T18:28:51.696Z,22.93
2019-02-21T18:31:27.893Z,23.65
2019-02-21T18:33:57.508Z,24.90
2019-02-21T18:36:27.933Z,24.55
2019-02-21T18:38:58.312Z,30.75
2019-02-21T18:41:26.745Z,25.65
2019-02-21T18:43:54.797Z,17.60
2019-02-21T18:46:22.593Z,25.40
2019-02-21T18:48:50.680Z,27.20
2019-02-21T18:51:36.990Z,22.40
2019-02-21T18:54:04.987Z,50.63
2019-02-21T18:56:32.804Z,28.85
2019-02-21T18:59:00.172Z,26.00
2019-02-21T19:01:27.386Z,21.67
2019-02-21T19:03:55.198Z,18.50
2019-02-21T19:06:23.105Z,26.15
2019-02-21T19:08:51.970Z,25.10
2019-02-21T19:11:19.800Z,20.10
2019-02-21T19:13:47.798Z,27.10
2019-02-21T19:16:15.274Z,24.70
2019-02-21T19:18:43.719Z,21.85
2019-02-21T19:21:12.589Z,30.15
2019-02-21T19:23:40.162Z,20.55
2019-02-21T19:26:07.755Z,29.30
2019-02-21T19:28:35.818Z,20.97
2019-02-21T19:31:08.693Z,17.65
2019-02-21T19:33:37.062Z,17.00
2019-02-21T19:36:04.406Z,25.00
2019-02-21T19:38:31.665Z,18.85
2019-02-21T19:40:58.891Z,19.20
2019-02-21T19:43:27.398Z,21.20
2019-02-21T19:45:55.433Z,18.90
2019-02-21T19:48:22.656Z,24.20
2019-02-21T19:50:50.020Z,18.50
2019-02-21T19:53:17.554Z,20.97
2019-02-21T19:55:48.157Z,19.55
2019-02-21T19:58:15.906Z,16.00
2019-02-21T20:00:43.880Z,17.30
2019-02-21T20:03:12.195Z,17.60
2019-02-21T20:05:40.036Z,17.30
2019-02-21T20:08:09.241Z,14.45
2019-02-21T20:10:38.484Z,17.80
2019-02-21T20:14:03.134Z,15.10
2019-02-21T20:16:30.809Z,15.50
2019-02-21T20:18:58.044Z,17.85
2019-02-21T20:21:26.520Z,17.40
2019-02-21T20:23:55.108Z,18.60
2019-02-21T20:26:22.307Z,15.60
2019-02-21T20:28:49.736Z,14.50
2019-02-21T20:31:17.686Z,18.30
2019-02-21T20:33:45.049Z,13.07
2019-02-21T20:36:12.583Z,12.23
2019-02-21T20:38:40.782Z,12.30
2019-02-21T20:41:08.493Z,18.30
2019-02-21T20:43:35.742Z,14.03
2019-02-21T20:46:03.202Z,15.00
2019-02-21T20:48:31.555Z,16.13
2019-02-21T20:51:01.526Z,15.80
2019-02-21T20:53:28.726Z,15.10
2019-02-21T20:55:56.244Z,16.10
2019-02-21T20:58:24.094Z,14.35
2019-02-21T21:00:51.433Z,14.45
2019-02-21T21:03:19.148Z,14.90
2019-02-21T21:05:46.964Z,15.05
2019-02-21T21:08:15.858Z,11.60
2019-02-21T21:10:43.136Z,13.50
2019-02-21T21:13:10.571Z,13.90
2019-02-21T21:15:38.249Z,11.90
2019-02-21T21:18:05.496Z,11.75
2019-02-21T21:20:33.303Z,14.23
2019-02-21T21:23:01.421Z,10.48
2019-02-21T21:25:31.773Z,11.43
2019-02-21T21:27:58.417Z,12.95
2019-02-21T21:30:25.970Z,10.80
2019-02-21T21:32:53.254Z,14.87
2019-02-21T21:35:21.097Z,12.85
2019-02-21T21:37:49.023Z,10.00
2019-02-21T21:40:16.406Z,11.90
2019-02-21T21:42:44.258Z,14.20
2019-02-21T21:45:14.184Z,14.67
2019-02-21T21:47:41.759Z,14.07
2019-02-21T21:50:10.270Z,13.50
2019-02-21T21:52:41.551Z,11.55
2019-02-21T21:55:09.411Z,11.70
2019-02-21T21:57:37.281Z,16.00
2019-02-21T22:00:06.994Z,18.05
2019-02-21T22:02:35.374Z,10.90
2019-02-21T22:05:02.933Z,10.50
2019-02-21T22:07:30.523Z,10.95
2019-02-21T22:09:58.746Z,11.70
2019-02-21T22:12:26.714Z,11.00
2019-02-21T22:14:54.905Z,8.98
2019-02-21T22:17:22.882Z,10.80
2019-02-21T22:19:51.059Z,10.55
2019-02-21T22:22:18.623Z,10.10
2019-02-21T22:24:46.121Z,12.35
2019-02-21T22:27:14.022Z,10.20
2019-02-21T22:29:41.913Z,9.55
2019-02-21T22:32:09.490Z,10.25
2019-02-21T22:34:37.569Z,10.80
2019-02-21T22:37:05.627Z,12.70
2019-02-21T22:39:33.798Z,12.37
2019-02-21T22:42:01.090Z,9.30
2019-02-21T22:44:47.913Z,9.90
2019-02-21T22:47:15.374Z,9.15
2019-02-21T22:49:43.511Z,9.55
2019-02-21T22:52:11.033Z,11.00
2019-02-21T22:54:39.554Z,13.13
2019-02-21T22:57:07.097Z,10.60
2019-02-21T22:59:34.941Z,11.00
2019-02-21T23:02:02.286Z,10.10
2019-02-21T23:05:33.485Z,11.50
2019-02-21T23:08:45.515Z,9.20
2019-02-21T23:11:12.736Z,13.70
2019-02-21T23:13:39.971Z,13.10
2019-02-21T23:16:07.875Z,11.50
2019-02-21T23:18:35.520Z,12.90
2019-02-21T23:21:02.998Z,10.95
2019-02-21T23:23:30.367Z,8.85
2019-02-21T23:25:57.947Z,11.83
2019-02-21T23:28:26.210Z,8.90
2019-02-21T23:30:53.449Z,9.25
2019-02-21T23:33:21.172Z,8.90
2019-02-21T23:35:48.395Z,10.10
2019-02-21T23:38:16.506Z,10.33
2019-02-21T23:40:43.784Z,8.53
2019-02-21T23:43:11.118Z,10.07
2019-02-21T23:45:38.715Z,8.55
2019-02-21T23:48:07.672Z,10.80
2019-02-21T23:50:35.238Z,9.85
2019-02-21T23:53:02.487Z,10.15
2019-02-21T23:55:30.817Z,9.90
2019-02-21T23:57:58.080Z,10.85
